sensor_id;sensor_type;location;lat;lon;timestamp;P1;durP1;ratioP1;P2;durP2;ratioP2
55655;SDS011;41530;52.382;5.270;2023-05-25T00:00:08;4.57;;;1.45;;
55655;SDS011;41530;52.382;5.270;2023-05-25T00:02:39;3.80;;;1.38;;
55655;SDS011;41530;52.382;5.270;2023-05-25T00:05:08;3.78;;;1.27;;
55655;SDS011;41530;52.382;5.270;2023-05-25T00:07:36;4.10;;;1.30;;
55655;SDS011;41530;52.382;5.270;2023-05-25T00:10:03;6.85;;;1.70;;
55655;SDS011;41530;52.382;5.270;2023-05-25T00:12:31;3.30;;;1.38;;
55655;SDS011;41530;52.382;5.270;2023-05-25T00:14:58;3.85;;;1.80;;
55655;SDS011;41530;52.382;5.270;2023-05-25T00:17:25;3.80;;;1.50;;
55655;SDS011;41530;52.382;5.270;2023-05-25T00:19:55;3.95;;;1.60;;
55655;SDS011;41530;52.382;5.270;2023-05-25T00:22:23;6.25;;;1.95;;
55655;SDS011;41530;52.382;5.270;2023-05-25T00:24:54;7.25;;;1.80;;
55655;SDS011;41530;52.382;5.270;2023-05-25T00:27:20;4.38;;;1.52;;
55655;SDS011;41530;52.382;5.270;2023-05-25T00:29:47;3.95;;;1.70;;
55655;SDS011;41530;52.382;5.270;2023-05-25T00:32:13;3.58;;;1.48;;
55655;SDS011;41530;52.382;5.270;2023-05-25T00:34:40;7.28;;;1.92;;
55655;SDS011;41530;52.382;5.270;2023-05-25T00:37:07;3.13;;;1.67;;
55655;SDS011;41530;52.382;5.270;2023-05-25T00:39:34;6.32;;;1.67;;
55655;SDS011;41530;52.382;5.270;2023-05-25T00:42:01;5.00;;;1.70;;
55655;SDS011;41530;52.382;5.270;2023-05-25T00:44:28;7.18;;;2.30;;
55655;SDS011;41530;52.382;5.270;2023-05-25T00:46:57;7.05;;;1.55;;
55655;SDS011;41530;52.382;5.270;2023-05-25T00:49:25;5.28;;;1.45;;
55655;SDS011;41530;52.382;5.270;2023-05-25T00:51:59;5.18;;;1.92;;
55655;SDS011;41530;52.382;5.270;2023-05-25T00:57:55;5.13;;;1.85;;
55655;SDS011;41530;52.382;5.270;2023-05-25T01:00:26;4.47;;;1.65;;
55655;SDS011;41530;52.382;5.270;2023-05-25T01:02:53;4.53;;;1.67;;
55655;SDS011;41530;52.382;5.270;2023-05-25T01:05:23;3.03;;;1.60;;
55655;SDS011;41530;52.382;5.270;2023-05-25T01:07:55;4.85;;;1.92;;
55655;SDS011;41530;52.382;5.270;2023-05-25T01:10:24;4.97;;;1.63;;
55655;SDS011;41530;52.382;5.270;2023-05-25T01:12:52;6.15;;;1.35;;
55655;SDS011;41530;52.382;5.270;2023-05-25T01:15:21;5.10;;;1.60;;
55655;SDS011;41530;52.382;5.270;2023-05-25T01:17:48;5.63;;;1.73;;
55655;SDS011;41530;52.382;5.270;2023-05-25T01:20:19;5.57;;;1.63;;
55655;SDS011;41530;52.382;5.270;2023-05-25T01:25:54;3.05;;;1.40;;
55655;SDS011;41530;52.382;5.270;2023-05-25T01:28:29;2.97;;;1.30;;
55655;SDS011;41530;52.382;5.270;2023-05-25T01:31:01;2.65;;;1.42;;
55655;SDS011;41530;52.382;5.270;2023-05-25T01:33:28;3.70;;;1.27;;
55655;SDS011;41530;52.382;5.270;2023-05-25T01:36:04;4.20;;;1.30;;
55655;SDS011;41530;52.382;5.270;2023-05-25T01:38:55;3.85;;;1.20;;
55655;SDS011;41530;52.382;5.270;2023-05-25T01:41:23;5.38;;;1.30;;
55655;SDS011;41530;52.382;5.270;2023-05-25T01:43:59;2.78;;;1.27;;
55655;SDS011;41530;52.382;5.270;2023-05-25T01:46:40;2.63;;;1.25;;
55655;SDS011;41530;52.382;5.270;2023-05-25T01:49:45;3.70;;;1.40;;
55655;SDS011;41530;52.382;5.270;2023-05-25T01:53:12;3.88;;;1.40;;
55655;SDS011;41530;52.382;5.270;2023-05-25T01:55:57;3.60;;;1.23;;
55655;SDS011;41530;52.382;5.270;2023-05-25T01:58:41;2.97;;;1.38;;
55655;SDS011;41530;52.382;5.270;2023-05-25T02:01:20;3.08;;;1.30;;
55655;SDS011;41530;52.382;5.270;2023-05-25T02:04:28;3.00;;;1.45;;
55655;SDS011;41530;52.382;5.270;2023-05-25T02:07:06;4.50;;;1.27;;
55655;SDS011;41530;52.382;5.270;2023-05-25T02:09:41;3.60;;;1.35;;
55655;SDS011;41530;52.382;5.270;2023-05-25T02:12:31;3.17;;;1.42;;
55655;SDS011;41530;52.382;5.270;2023-05-25T02:14:59;4.60;;;1.50;;
55655;SDS011;41530;52.382;5.270;2023-05-25T02:17:43;3.72;;;1.30;;
55655;SDS011;41530;52.382;5.270;2023-05-25T02:20:15;4.25;;;1.50;;
55655;SDS011;41530;52.382;5.270;2023-05-25T02:22:44;2.15;;;1.20;;
55655;SDS011;41530;52.382;5.270;2023-05-25T02:25:44;3.42;;;1.52;;
55655;SDS011;41530;52.382;5.270;2023-05-25T02:28:25;2.50;;;1.10;;
55655;SDS011;41530;52.382;5.270;2023-05-25T02:30:57;2.40;;;1.30;;
55655;SDS011;41530;52.382;5.270;2023-05-25T02:33:29;2.85;;;1.40;;
55655;SDS011;41530;52.382;5.270;2023-05-25T02:35:58;3.78;;;1.40;;
55655;SDS011;41530;52.382;5.270;2023-05-25T02:38:53;2.75;;;1.45;;
55655;SDS011;41530;52.382;5.270;2023-05-25T02:41:29;2.85;;;1.33;;
55655;SDS011;41530;52.382;5.270;2023-05-25T02:44:08;3.50;;;1.30;;
55655;SDS011;41530;52.382;5.270;2023-05-25T02:46:42;2.83;;;1.45;;
55655;SDS011;41530;52.382;5.270;2023-05-25T02:49:17;3.78;;;1.17;;
55655;SDS011;41530;52.382;5.270;2023-05-25T02:51:48;4.63;;;1.50;;
55655;SDS011;41530;52.382;5.270;2023-05-25T02:54:24;2.80;;;1.20;;
55655;SDS011;41530;52.382;5.270;2023-05-25T02:57:03;3.28;;;1.02;;
55655;SDS011;41530;52.382;5.270;2023-05-25T02:59:58;2.08;;;1.20;;
55655;SDS011;41530;52.382;5.270;2023-05-25T03:02:40;2.78;;;1.17;;
55655;SDS011;41530;52.382;5.270;2023-05-25T03:05:11;3.85;;;1.20;;
55655;SDS011;41530;52.382;5.270;2023-05-25T03:07:46;2.97;;;1.08;;
55655;SDS011;41530;52.382;5.270;2023-05-25T03:10:19;3.47;;;1.20;;
55655;SDS011;41530;52.382;5.270;2023-05-25T03:15:42;5.00;;;1.40;;
55655;SDS011;41530;52.382;5.270;2023-05-25T03:18:16;4.95;;;1.67;;
55655;SDS011;41530;52.382;5.270;2023-05-25T03:20:56;5.70;;;1.40;;
55655;SDS011;41530;52.382;5.270;2023-05-25T03:23:23;2.83;;;1.33;;
55655;SDS011;41530;52.382;5.270;2023-05-25T03:26:17;1.95;;;1.20;;
55655;SDS011;41530;52.382;5.270;2023-05-25T03:28:52;3.60;;;1.48;;
55655;SDS011;41530;52.382;5.270;2023-05-25T03:31:24;4.97;;;1.30;;
55655;SDS011;41530;52.382;5.270;2023-05-25T03:34:08;4.72;;;1.30;;
55655;SDS011;41530;52.382;5.270;2023-05-25T03:37:07;3.72;;;1.30;;
55655;SDS011;41530;52.382;5.270;2023-05-25T03:39:38;4.45;;;1.45;;
55655;SDS011;41530;52.382;5.270;2023-05-25T03:42:19;3.53;;;1.33;;
55655;SDS011;41530;52.382;5.270;2023-05-25T03:44:58;5.60;;;1.50;;
55655;SDS011;41530;52.382;5.270;2023-05-25T03:47:45;3.72;;;1.45;;
55655;SDS011;41530;52.382;5.270;2023-05-25T03:50:23;5.28;;;1.63;;
55655;SDS011;41530;52.382;5.270;2023-05-25T03:53:00;2.88;;;1.10;;
55655;SDS011;41530;52.382;5.270;2023-05-25T03:55:49;3.83;;;1.45;;
55655;SDS011;41530;52.382;5.270;2023-05-25T03:58:23;5.20;;;1.98;;
55655;SDS011;41530;52.382;5.270;2023-05-25T04:00:58;3.22;;;1.38;;
55655;SDS011;41530;52.382;5.270;2023-05-25T04:03:34;3.08;;;1.58;;
55655;SDS011;41530;52.382;5.270;2023-05-25T04:06:10;6.97;;;1.50;;
55655;SDS011;41530;52.382;5.270;2023-05-25T04:11:59;2.45;;;1.50;;
55655;SDS011;41530;52.382;5.270;2023-05-25T04:14:27;2.65;;;1.40;;
55655;SDS011;41530;52.382;5.270;2023-05-25T04:17:17;5.45;;;2.28;;
55655;SDS011;41530;52.382;5.270;2023-05-25T04:19:56;6.90;;;3.13;;
55655;SDS011;41530;52.382;5.270;2023-05-25T04:22:40;5.90;;;2.05;;
55655;SDS011;41530;52.382;5.270;2023-05-25T04:25:35;4.93;;;1.88;;
55655;SDS011;41530;52.382;5.270;2023-05-25T04:28:37;5.70;;;1.60;;
55655;SDS011;41530;52.382;5.270;2023-05-25T04:31:33;4.90;;;1.80;;
55655;SDS011;41530;52.382;5.270;2023-05-25T04:34:10;5.28;;;1.80;;
55655;SDS011;41530;52.382;5.270;2023-05-25T04:37:13;6.38;;;2.28;;
55655;SDS011;41530;52.382;5.270;2023-05-25T04:39:49;4.35;;;1.90;;
55655;SDS011;41530;52.382;5.270;2023-05-25T04:42:43;3.95;;;1.88;;
55655;SDS011;41530;52.382;5.270;2023-05-25T04:45:31;4.50;;;2.08;;
55655;SDS011;41530;52.382;5.270;2023-05-25T04:48:20;2.95;;;1.73;;
55655;SDS011;41530;52.382;5.270;2023-05-25T04:51:04;4.55;;;1.80;;
55655;SDS011;41530;52.382;5.270;2023-05-25T04:57:04;5.90;;;1.50;;
55655;SDS011;41530;52.382;5.270;2023-05-25T04:59:38;7.63;;;2.30;;
55655;SDS011;41530;52.382;5.270;2023-05-25T05:05:14;4.38;;;1.50;;
55655;SDS011;41530;52.382;5.270;2023-05-25T05:08:01;10.15;;;3.40;;
55655;SDS011;41530;52.382;5.270;2023-05-25T05:10:31;5.72;;;2.40;;
55655;SDS011;41530;52.382;5.270;2023-05-25T05:13:21;7.38;;;3.22;;
55655;SDS011;41530;52.382;5.270;2023-05-25T05:16:03;6.30;;;2.33;;
55655;SDS011;41530;52.382;5.270;2023-05-25T05:18:52;6.35;;;2.40;;
55655;SDS011;41530;52.382;5.270;2023-05-25T05:21:40;6.72;;;2.38;;
55655;SDS011;41530;52.382;5.270;2023-05-25T05:24:27;3.67;;;1.70;;
55655;SDS011;41530;52.382;5.270;2023-05-25T05:27:08;6.40;;;2.50;;
55655;SDS011;41530;52.382;5.270;2023-05-25T05:30:08;9.55;;;2.40;;
55655;SDS011;41530;52.382;5.270;2023-05-25T05:32:35;5.68;;;1.67;;
55655;SDS011;41530;52.382;5.270;2023-05-25T05:35:22;2.80;;;1.40;;
55655;SDS011;41530;52.382;5.270;2023-05-25T05:37:54;6.53;;;2.03;;
55655;SDS011;41530;52.382;5.270;2023-05-25T05:40:21;5.32;;;2.03;;
55655;SDS011;41530;52.382;5.270;2023-05-25T05:46:04;5.72;;;1.88;;
55655;SDS011;41530;52.382;5.270;2023-05-25T05:48:37;8.98;;;2.20;;
55655;SDS011;41530;52.382;5.270;2023-05-25T05:54:49;4.88;;;1.85;;
55655;SDS011;41530;52.382;5.270;2023-05-25T05:57:41;7.45;;;2.45;;
55655;SDS011;41530;52.382;5.270;2023-05-25T06:01:14;5.88;;;1.60;;
55655;SDS011;41530;52.382;5.270;2023-05-25T06:07:03;3.63;;;1.70;;
55655;SDS011;41530;52.382;5.270;2023-05-25T06:12:20;6.05;;;1.90;;
55655;SDS011;41530;52.382;5.270;2023-05-25T06:15:11;5.53;;;1.60;;
55655;SDS011;41530;52.382;5.270;2023-05-25T06:18:16;4.88;;;1.77;;
55655;SDS011;41530;52.382;5.270;2023-05-25T06:20:52;3.20;;;1.73;;
55655;SDS011;41530;52.382;5.270;2023-05-25T06:23:41;5.93;;;2.15;;
55655;SDS011;41530;52.382;5.270;2023-05-25T06:26:25;5.35;;;1.80;;
55655;SDS011;41530;52.382;5.270;2023-05-25T06:29:09;6.95;;;1.60;;
55655;SDS011;41530;52.382;5.270;2023-05-25T06:31:43;4.30;;;1.80;;
55655;SDS011;41530;52.382;5.270;2023-05-25T06:34:27;4.55;;;1.58;;
55655;SDS011;41530;52.382;5.270;2023-05-25T06:37:16;2.95;;;1.40;;
55655;SDS011;41530;52.382;5.270;2023-05-25T06:40:15;2.60;;;1.40;;
55655;SDS011;41530;52.382;5.270;2023-05-25T06:42:53;5.03;;;1.70;;
55655;SDS011;41530;52.382;5.270;2023-05-25T06:45:35;3.60;;;1.52;;
55655;SDS011;41530;52.382;5.270;2023-05-25T06:48:07;4.20;;;1.45;;
55655;SDS011;41530;52.382;5.270;2023-05-25T06:50:52;5.07;;;1.48;;
55655;SDS011;41530;52.382;5.270;2023-05-25T06:53:25;3.85;;;1.40;;
55655;SDS011;41530;52.382;5.270;2023-05-25T06:55:55;2.22;;;1.05;;
55655;SDS011;41530;52.382;5.270;2023-05-25T06:58:32;5.15;;;1.27;;
55655;SDS011;41530;52.382;5.270;2023-05-25T07:01:09;5.15;;;1.33;;
55655;SDS011;41530;52.382;5.270;2023-05-25T07:04:09;3.80;;;1.35;;
55655;SDS011;41530;52.382;5.270;2023-05-25T07:06:43;12.75;;;1.60;;
55655;SDS011;41530;52.382;5.270;2023-05-25T07:09:28;2.63;;;1.27;;
55655;SDS011;41530;52.382;5.270;2023-05-25T07:12:01;1.73;;;1.10;;
55655;SDS011;41530;52.382;5.270;2023-05-25T07:14:45;1.90;;;1.10;;
55655;SDS011;41530;52.382;5.270;2023-05-25T07:17:29;2.15;;;1.33;;
55655;SDS011;41530;52.382;5.270;2023-05-25T07:20:10;2.40;;;1.17;;
55655;SDS011;41530;52.382;5.270;2023-05-25T07:22:45;2.63;;;1.30;;
55655;SDS011;41530;52.382;5.270;2023-05-25T07:25:29;2.10;;;1.00;;
55655;SDS011;41530;52.382;5.270;2023-05-25T07:28:10;2.38;;;1.00;;
55655;SDS011;41530;52.382;5.270;2023-05-25T07:30:50;3.08;;;1.10;;
55655;SDS011;41530;52.382;5.270;2023-05-25T07:33:39;2.60;;;1.30;;
55655;SDS011;41530;52.382;5.270;2023-05-25T07:36:32;3.63;;;1.35;;
55655;SDS011;41530;52.382;5.270;2023-05-25T07:39:24;2.30;;;1.10;;
55655;SDS011;41530;52.382;5.270;2023-05-25T07:42:18;1.98;;;1.00;;
55655;SDS011;41530;52.382;5.270;2023-05-25T07:47:57;1.50;;;0.80;;
55655;SDS011;41530;52.382;5.270;2023-05-25T07:50:27;3.13;;;1.20;;
55655;SDS011;41530;52.382;5.270;2023-05-25T07:53:25;1.42;;;0.90;;
55655;SDS011;41530;52.382;5.270;2023-05-25T07:56:00;2.00;;;1.08;;
55655;SDS011;41530;52.382;5.270;2023-05-25T07:58:36;1.67;;;0.80;;
55655;SDS011;41530;52.382;5.270;2023-05-25T08:01:19;1.25;;;0.90;;
55655;SDS011;41530;52.382;5.270;2023-05-25T08:03:52;1.80;;;1.00;;
55655;SDS011;41530;52.382;5.270;2023-05-25T08:06:27;2.30;;;1.25;;
55655;SDS011;41530;52.382;5.270;2023-05-25T08:09:36;2.00;;;0.98;;
55655;SDS011;41530;52.382;5.270;2023-05-25T08:12:22;1.65;;;1.00;;
55655;SDS011;41530;52.382;5.270;2023-05-25T08:15:11;1.60;;;1.10;;
55655;SDS011;41530;52.382;5.270;2023-05-25T08:18:01;1.10;;;0.80;;
55655;SDS011;41530;52.382;5.270;2023-05-25T08:21:00;2.72;;;1.10;;
55655;SDS011;41530;52.382;5.270;2023-05-25T08:23:30;2.17;;;1.00;;
55655;SDS011;41530;52.382;5.270;2023-05-25T08:26:08;1.90;;;0.98;;
55655;SDS011;41530;52.382;5.270;2023-05-25T08:28:43;1.20;;;1.00;;
55655;SDS011;41530;52.382;5.270;2023-05-25T08:31:16;1.75;;;0.70;;
55655;SDS011;41530;52.382;5.270;2023-05-25T08:38:24;1.45;;;0.90;;
55655;SDS011;41530;52.382;5.270;2023-05-25T08:41:34;1.92;;;1.35;;
55655;SDS011;41530;52.382;5.270;2023-05-25T08:44:20;1.33;;;0.80;;
55655;SDS011;41530;52.382;5.270;2023-05-25T08:47:21;2.67;;;1.00;;
55655;SDS011;41530;52.382;5.270;2023-05-25T08:49:54;1.88;;;1.27;;
55655;SDS011;41530;52.382;5.270;2023-05-25T08:53:01;2.92;;;1.00;;
55655;SDS011;41530;52.382;5.270;2023-05-25T08:55:49;2.25;;;0.98;;
55655;SDS011;41530;52.382;5.270;2023-05-25T08:58:29;1.05;;;0.70;;
55655;SDS011;41530;52.382;5.270;2023-05-25T09:04:07;1.50;;;1.13;;
55655;SDS011;41530;52.382;5.270;2023-05-25T09:06:59;1.08;;;0.90;;
55655;SDS011;41530;52.382;5.270;2023-05-25T09:09:36;1.33;;;1.10;;
55655;SDS011;41530;52.382;5.270;2023-05-25T09:12:30;1.23;;;0.80;;
55655;SDS011;41530;52.382;5.270;2023-05-25T09:15:20;1.70;;;0.95;;
55655;SDS011;41530;52.382;5.270;2023-05-25T09:21:37;1.98;;;1.02;;
55655;SDS011;41530;52.382;5.270;2023-05-25T09:24:26;1.55;;;0.80;;
55655;SDS011;41530;52.382;5.270;2023-05-25T09:27:27;2.50;;;0.98;;
55655;SDS011;41530;52.382;5.270;2023-05-25T09:30:12;1.92;;;0.90;;
55655;SDS011;41530;52.382;5.270;2023-05-25T09:33:10;1.70;;;0.90;;
55655;SDS011;41530;52.382;5.270;2023-05-25T09:39:26;2.13;;;1.08;;
55655;SDS011;41530;52.382;5.270;2023-05-25T09:42:04;2.75;;;1.15;;
55655;SDS011;41530;52.382;5.270;2023-05-25T09:45:02;1.48;;;0.90;;
55655;SDS011;41530;52.382;5.270;2023-05-25T09:47:40;1.63;;;1.00;;
55655;SDS011;41530;52.382;5.270;2023-05-25T09:50:23;1.67;;;1.00;;
55655;SDS011;41530;52.382;5.270;2023-05-25T09:53:02;1.48;;;0.98;;
55655;SDS011;41530;52.382;5.270;2023-05-25T09:55:32;1.85;;;0.90;;
55655;SDS011;41530;52.382;5.270;2023-05-25T09:58:18;1.50;;;0.70;;
55655;SDS011;41530;52.382;5.270;2023-05-25T10:04:33;1.60;;;1.05;;
55655;SDS011;41530;52.382;5.270;2023-05-25T10:10:52;1.02;;;0.90;;
55655;SDS011;41530;52.382;5.270;2023-05-25T10:13:31;0.88;;;0.80;;
55655;SDS011;41530;52.382;5.270;2023-05-25T10:16:01;1.90;;;0.80;;
55655;SDS011;41530;52.382;5.270;2023-05-25T10:19:11;2.30;;;1.02;;
55655;SDS011;41530;52.382;5.270;2023-05-25T10:22:01;1.63;;;0.90;;
55655;SDS011;41530;52.382;5.270;2023-05-25T10:33:14;1.83;;;0.65;;
55655;SDS011;41530;52.382;5.270;2023-05-25T10:36:16;1.00;;;0.75;;
55655;SDS011;41530;52.382;5.270;2023-05-25T10:38:59;1.10;;;1.00;;
55655;SDS011;41530;52.382;5.270;2023-05-25T10:54:54;1.13;;;0.77;;
55655;SDS011;41530;52.382;5.270;2023-05-25T11:01:10;2.47;;;1.00;;
55655;SDS011;41530;52.382;5.270;2023-05-25T11:08:03;1.45;;;0.80;;
55655;SDS011;41530;52.382;5.270;2023-05-25T11:11:12;1.90;;;0.95;;
55655;SDS011;41530;52.382;5.270;2023-05-25T11:14:36;0.90;;;0.75;;
55655;SDS011;41530;52.382;5.270;2023-05-25T11:17:20;1.45;;;0.88;;
55655;SDS011;41530;52.382;5.270;2023-05-25T11:20:07;1.48;;;0.90;;
55655;SDS011;41530;52.382;5.270;2023-05-25T11:26:11;1.48;;;0.80;;
55655;SDS011;41530;52.382;5.270;2023-05-25T11:29:10;1.40;;;0.70;;
55655;SDS011;41530;52.382;5.270;2023-05-25T11:31:52;1.77;;;0.90;;
55655;SDS011;41530;52.382;5.270;2023-05-25T11:34:28;0.70;;;0.70;;
55655;SDS011;41530;52.382;5.270;2023-05-25T11:37:17;1.35;;;0.90;;
55655;SDS011;41530;52.382;5.270;2023-05-25T11:40:21;1.48;;;0.82;;
55655;SDS011;41530;52.382;5.270;2023-05-25T11:43:21;1.75;;;0.90;;
55655;SDS011;41530;52.382;5.270;2023-05-25T11:46:32;1.25;;;0.93;;
55655;SDS011;41530;52.382;5.270;2023-05-25T11:49:03;1.98;;;1.05;;
55655;SDS011;41530;52.382;5.270;2023-05-25T11:51:46;2.78;;;1.35;;
55655;SDS011;41530;52.382;5.270;2023-05-25T11:54:27;1.95;;;0.80;;
55655;SDS011;41530;52.382;5.270;2023-05-25T11:57:55;0.88;;;0.88;;
55655;SDS011;41530;52.382;5.270;2023-05-25T12:00:05;4.55;;;1.10;;
55655;SDS011;41530;52.382;5.270;2023-05-25T12:03:05;2.38;;;1.10;;
55655;SDS011;41530;52.382;5.270;2023-05-25T12:05:39;1.45;;;0.85;;
55655;SDS011;41530;52.382;5.270;2023-05-25T12:08:10;2.20;;;1.00;;
55655;SDS011;41530;52.382;5.270;2023-05-25T12:10:52;1.33;;;0.95;;
55655;SDS011;41530;52.382;5.270;2023-05-25T12:13:32;2.45;;;1.10;;
55655;SDS011;41530;52.382;5.270;2023-05-25T12:16:18;1.45;;;1.00;;
55655;SDS011;41530;52.382;5.270;2023-05-25T12:19:03;2.10;;;1.13;;
55655;SDS011;41530;52.382;5.270;2023-05-25T12:22:00;1.85;;;1.00;;
55655;SDS011;41530;52.382;5.270;2023-05-25T12:24:30;1.67;;;0.90;;
55655;SDS011;41530;52.382;5.270;2023-05-25T12:27:15;1.73;;;0.80;;
55655;SDS011;41530;52.382;5.270;2023-05-25T12:29:55;1.48;;;0.90;;
55655;SDS011;41530;52.382;5.270;2023-05-25T12:33:01;4.28;;;0.90;;
55655;SDS011;41530;52.382;5.270;2023-05-25T12:35:56;2.72;;;1.08;;
55655;SDS011;41530;52.382;5.270;2023-05-25T12:38:35;3.35;;;1.10;;
55655;SDS011;41530;52.382;5.270;2023-05-25T12:41:09;2.65;;;1.00;;
55655;SDS011;41530;52.382;5.270;2023-05-25T12:47:23;2.42;;;1.10;;
55655;SDS011;41530;52.382;5.270;2023-05-25T12:50:10;4.18;;;1.20;;
55655;SDS011;41530;52.382;5.270;2023-05-25T12:53:10;2.75;;;0.98;;
55655;SDS011;41530;52.382;5.270;2023-05-25T12:55:45;1.98;;;0.85;;
55655;SDS011;41530;52.382;5.270;2023-05-25T12:58:25;2.25;;;1.10;;
55655;SDS011;41530;52.382;5.270;2023-05-25T13:03:40;1.67;;;0.80;;
55655;SDS011;41530;52.382;5.270;2023-05-25T13:06:12;1.77;;;1.00;;
55655;SDS011;41530;52.382;5.270;2023-05-25T13:08:45;2.15;;;1.20;;
55655;SDS011;41530;52.382;5.270;2023-05-25T13:11:34;1.63;;;1.08;;
55655;SDS011;41530;52.382;5.270;2023-05-25T13:14:19;3.17;;;1.23;;
55655;SDS011;41530;52.382;5.270;2023-05-25T13:17:10;4.03;;;1.30;;
55655;SDS011;41530;52.382;5.270;2023-05-25T13:19:55;2.75;;;1.38;;
55655;SDS011;41530;52.382;5.270;2023-05-25T13:23:12;4.97;;;1.15;;
55655;SDS011;41530;52.382;5.270;2023-05-25T13:25:47;3.95;;;1.30;;
55655;SDS011;41530;52.382;5.270;2023-05-25T13:28:28;3.25;;;1.33;;
55655;SDS011;41530;52.382;5.270;2023-05-25T13:31:01;3.83;;;1.05;;
55655;SDS011;41530;52.382;5.270;2023-05-25T13:33:57;3.10;;;1.33;;
55655;SDS011;41530;52.382;5.270;2023-05-25T13:36:33;2.08;;;1.20;;
55655;SDS011;41530;52.382;5.270;2023-05-25T13:39:06;1.80;;;1.00;;
55655;SDS011;41530;52.382;5.270;2023-05-25T13:41:46;1.35;;;0.88;;
55655;SDS011;41530;52.382;5.270;2023-05-25T13:44:23;1.92;;;1.08;;
55655;SDS011;41530;52.382;5.270;2023-05-25T13:47:17;2.40;;;0.85;;
55655;SDS011;41530;52.382;5.270;2023-05-25T13:50:02;2.17;;;0.85;;
55655;SDS011;41530;52.382;5.270;2023-05-25T13:52:49;2.35;;;1.17;;
55655;SDS011;41530;52.382;5.270;2023-05-25T13:55:34;2.28;;;1.15;;
55655;SDS011;41530;52.382;5.270;2023-05-25T13:58:13;3.00;;;1.30;;
55655;SDS011;41530;52.382;5.270;2023-05-25T14:00:54;2.67;;;1.23;;
55655;SDS011;41530;52.382;5.270;2023-05-25T14:04:02;3.20;;;1.10;;
55655;SDS011;41530;52.382;5.270;2023-05-25T14:07:09;2.22;;;1.05;;
55655;SDS011;41530;52.382;5.270;2023-05-25T14:09:50;3.72;;;1.00;;
55655;SDS011;41530;52.382;5.270;2023-05-25T14:12:49;2.75;;;1.17;;
55655;SDS011;41530;52.382;5.270;2023-05-25T14:15:36;2.55;;;1.25;;
55655;SDS011;41530;52.382;5.270;2023-05-25T14:18:17;2.40;;;1.05;;
55655;SDS011;41530;52.382;5.270;2023-05-25T14:20:54;2.25;;;1.08;;
55655;SDS011;41530;52.382;5.270;2023-05-25T14:23:37;3.42;;;1.20;;
55655;SDS011;41530;52.382;5.270;2023-05-25T14:26:39;3.63;;;0.90;;
55655;SDS011;41530;52.382;5.270;2023-05-25T14:29:29;1.65;;;0.88;;
55655;SDS011;41530;52.382;5.270;2023-05-25T14:32:45;2.30;;;1.10;;
55655;SDS011;41530;52.382;5.270;2023-05-25T14:35:43;2.42;;;1.10;;
55655;SDS011;41530;52.382;5.270;2023-05-25T14:44:58;2.30;;;1.10;;
55655;SDS011;41530;52.382;5.270;2023-05-25T14:51:05;3.35;;;1.08;;
55655;SDS011;41530;52.382;5.270;2023-05-25T14:53:48;3.70;;;1.10;;
55655;SDS011;41530;52.382;5.270;2023-05-25T14:56:53;3.70;;;1.30;;
55655;SDS011;41530;52.382;5.270;2023-05-25T15:00:13;3.72;;;1.20;;
55655;SDS011;41530;52.382;5.270;2023-05-25T15:02:54;3.65;;;1.30;;
55655;SDS011;41530;52.382;5.270;2023-05-25T15:08:45;2.88;;;1.48;;
55655;SDS011;41530;52.382;5.270;2023-05-25T15:11:14;2.00;;;0.90;;
55655;SDS011;41530;52.382;5.270;2023-05-25T15:14:22;2.17;;;1.15;;
55655;SDS011;41530;52.382;5.270;2023-05-25T15:17:58;2.97;;;1.25;;
55655;SDS011;41530;52.382;5.270;2023-05-25T15:21:27;5.18;;;1.35;;
55655;SDS011;41530;52.382;5.270;2023-05-25T15:23:59;3.53;;;1.30;;
55655;SDS011;41530;52.382;5.270;2023-05-25T15:26:30;3.80;;;1.10;;
55655;SDS011;41530;52.382;5.270;2023-05-25T15:29:49;2.47;;;1.45;;
55655;SDS011;41530;52.382;5.270;2023-05-25T15:32:22;4.07;;;1.35;;
55655;SDS011;41530;52.382;5.270;2023-05-25T15:35:25;1.77;;;1.17;;
55655;SDS011;41530;52.382;5.270;2023-05-25T15:38:14;3.40;;;1.27;;
55655;SDS011;41530;52.382;5.270;2023-05-25T15:41:40;4.70;;;1.50;;
55655;SDS011;41530;52.382;5.270;2023-05-25T15:44:22;3.08;;;1.27;;
55655;SDS011;41530;52.382;5.270;2023-05-25T15:46:53;2.38;;;1.10;;
55655;SDS011;41530;52.382;5.270;2023-05-25T15:49:56;3.15;;;1.10;;
55655;SDS011;41530;52.382;5.270;2023-05-25T15:52:25;2.15;;;1.02;;
55655;SDS011;41530;52.382;5.270;2023-05-25T16:01:30;2.00;;;0.93;;
55655;SDS011;41530;52.382;5.270;2023-05-25T16:04:13;3.42;;;1.35;;
55655;SDS011;41530;52.382;5.270;2023-05-25T16:06:56;2.53;;;1.20;;
55655;SDS011;41530;52.382;5.270;2023-05-25T16:09:42;2.65;;;1.17;;
55655;SDS011;41530;52.382;5.270;2023-05-25T16:12:14;3.55;;;1.30;;
55655;SDS011;41530;52.382;5.270;2023-05-25T16:15:32;3.70;;;1.42;;
55655;SDS011;41530;52.382;5.270;2023-05-25T16:18:17;4.03;;;1.20;;
55655;SDS011;41530;52.382;5.270;2023-05-25T16:20:53;3.05;;;1.35;;
55655;SDS011;41530;52.382;5.270;2023-05-25T16:23:56;2.15;;;1.05;;
55655;SDS011;41530;52.382;5.270;2023-05-25T16:26:39;5.03;;;1.60;;
55655;SDS011;41530;52.382;5.270;2023-05-25T16:32:31;3.35;;;1.30;;
55655;SDS011;41530;52.382;5.270;2023-05-25T16:35:38;5.20;;;1.50;;
55655;SDS011;41530;52.382;5.270;2023-05-25T16:38:30;9.02;;;1.80;;
55655;SDS011;41530;52.382;5.270;2023-05-25T16:45:08;13.80;;;2.65;;
55655;SDS011;41530;52.382;5.270;2023-05-25T16:47:59;11.35;;;2.80;;
55655;SDS011;41530;52.382;5.270;2023-05-25T16:50:30;14.65;;;3.30;;
55655;SDS011;41530;52.382;5.270;2023-05-25T16:53:19;11.50;;;2.67;;
55655;SDS011;41530;52.382;5.270;2023-05-25T16:56:00;12.70;;;2.72;;
55655;SDS011;41530;52.382;5.270;2023-05-25T16:59:07;14.25;;;3.38;;
55655;SDS011;41530;52.382;5.270;2023-05-25T17:01:44;10.57;;;3.05;;
55655;SDS011;41530;52.382;5.270;2023-05-25T17:04:19;23.98;;;4.00;;
55655;SDS011;41530;52.382;5.270;2023-05-25T17:06:58;10.73;;;2.83;;
55655;SDS011;41530;52.382;5.270;2023-05-25T17:13:11;14.32;;;4.03;;
55655;SDS011;41530;52.382;5.270;2023-05-25T17:15:51;13.10;;;2.80;;
55655;SDS011;41530;52.382;5.270;2023-05-25T17:18:55;11.85;;;2.95;;
55655;SDS011;41530;52.382;5.270;2023-05-25T17:21:38;17.00;;;3.60;;
55655;SDS011;41530;52.382;5.270;2023-05-25T17:24:49;10.75;;;2.88;;
55655;SDS011;41530;52.382;5.270;2023-05-25T17:27:49;12.57;;;3.53;;
55655;SDS011;41530;52.382;5.270;2023-05-25T17:30:21;13.80;;;3.25;;
55655;SDS011;41530;52.382;5.270;2023-05-25T17:33:06;12.55;;;3.08;;
55655;SDS011;41530;52.382;5.270;2023-05-25T17:35:58;13.18;;;3.33;;
55655;SDS011;41530;52.382;5.270;2023-05-25T17:38:40;11.75;;;2.90;;
55655;SDS011;41530;52.382;5.270;2023-05-25T17:44:33;13.73;;;3.08;;
55655;SDS011;41530;52.382;5.270;2023-05-25T17:54:12;9.68;;;2.50;;
55655;SDS011;41530;52.382;5.270;2023-05-25T17:57:16;13.98;;;3.20;;
55655;SDS011;41530;52.382;5.270;2023-05-25T17:59:58;12.55;;;2.90;;
55655;SDS011;41530;52.382;5.270;2023-05-25T18:09:31;11.68;;;3.08;;
55655;SDS011;41530;52.382;5.270;2023-05-25T18:12:23;12.98;;;3.38;;
55655;SDS011;41530;52.382;5.270;2023-05-25T18:15:56;10.23;;;2.88;;
55655;SDS011;41530;52.382;5.270;2023-05-25T18:19:21;11.10;;;2.55;;
55655;SDS011;41530;52.382;5.270;2023-05-25T18:25:14;10.98;;;2.75;;
55655;SDS011;41530;52.382;5.270;2023-05-25T18:28:17;12.52;;;2.70;;
55655;SDS011;41530;52.382;5.270;2023-05-25T18:33:54;10.98;;;3.15;;
55655;SDS011;41530;52.382;5.270;2023-05-25T18:37:02;11.85;;;2.67;;
55655;SDS011;41530;52.382;5.270;2023-05-25T18:40:16;11.13;;;2.85;;
55655;SDS011;41530;52.382;5.270;2023-05-25T18:46:27;9.20;;;2.97;;
55655;SDS011;41530;52.382;5.270;2023-05-25T18:49:33;10.25;;;2.55;;
55655;SDS011;41530;52.382;5.270;2023-05-25T18:55:38;17.55;;;3.45;;
55655;SDS011;41530;52.382;5.270;2023-05-25T18:58:31;7.00;;;2.92;;
55655;SDS011;41530;52.382;5.270;2023-05-25T19:04:45;10.15;;;2.92;;